Time;durP1;ratioP1;P1;durP2;ratioP2;P2;SDS_P1;SDS_P2;PMS_P1;PMS_P2;Temp;Humidity;BMP_temperature;BMP_pressure;BME280_temperature;BME280_humidity;BME280_pressure;Samples;Min_cycle;Max_cycle;Signal;HPM_P1;HPM_P2
2022/08/06 00:00:18;;;;;;;3.80;1.63;;;15.70;99.90;;;;;;5020766;28;20212;-51
2022/08/06 00:02:53;;;;;;;2.70;1.53;;;15.70;99.90;;;;;;5019576;28;20624;-50
2022/08/06 00:05:21;;;;;;;4.70;1.73;;;15.40;99.90;;;;;;5019348;28;20208;-51
2022/08/06 00:08:01;;;;;;;4.67;1.43;;;15.20;99.90;;;;;;5019499;28;20204;-50
2022/08/06 00:10:29;;;;;;;6.10;2.10;;;15.10;99.90;;;;;;5019225;28;20660;-50
2022/08/06 00:12:58;;;;;;;5.33;1.77;;;15.20;99.90;;;;;;5019059;28;20325;-50
2022/08/06 00:15:35;;;;;;;5.63;1.70;;;15.20;99.90;;;;;;5019965;28;20208;-50
2022/08/06 00:18:22;;;;;;;3.93;1.70;;;14.90;99.90;;;;;;5020161;28;20251;-49
2022/08/06 00:20:52;;;;;;;4.23;1.90;;;14.90;99.90;;;;;;5019743;28;20791;-51
2022/08/06 00:23:41;;;;;;;4.00;1.50;;;14.80;99.90;;;;;;5013260;28;20216;-50
2022/08/06 00:26:24;;;;;;;3.87;1.70;;;14.70;99.90;;;;;;5020213;28;20542;-49
2022/08/06 00:28:57;;;;;;;2.73;2.00;;;14.90;99.90;;;;;;5019726;28;20557;-49
2022/08/06 00:31:28;;;;;;;5.80;2.37;;;15.00;99.90;;;;;;5018427;28;20665;-51
2022/08/06 00:33:59;;;;;;;4.33;1.63;;;15.00;99.90;;;;;;5018955;28;20574;-49
2022/08/06 00:36:32;;;;;;;3.57;1.70;;;15.10;99.90;;;;;;5019498;28;20851;-51
2022/08/06 00:39:01;;;;;;;2.23;1.70;;;15.10;99.90;;;;;;5050364;28;20308;-51
2022/08/06 00:41:36;;;;;;;5.00;2.10;;;15.20;99.90;;;;;;5018313;28;20561;-50
2022/08/06 00:44:12;;;;;;;4.03;1.73;;;15.20;99.90;;;;;;5034271;28;20208;-50
2022/08/06 00:46:41;;;;;;;3.73;1.80;;;15.20;99.90;;;;;;5019329;28;20668;-50
2022/08/06 00:49:09;;;;;;;3.53;2.00;;;15.10;99.90;;;;;;5014098;28;20272;-50
2022/08/06 00:51:40;;;;;;;4.10;1.57;;;15.00;99.90;;;;;;5021237;28;20907;-50
2022/08/06 00:54:28;;;;;;;4.73;1.73;;;14.90;99.90;;;;;;5020081;28;20244;-50
2022/08/06 00:57:04;;;;;;;6.60;2.33;;;14.70;99.90;;;;;;5019112;28;20684;-50
2022/08/06 00:59:38;;;;;;;5.40;2.17;;;14.70;99.90;;;;;;5019171;28;20680;-49
2022/08/06 01:02:12;;;;;;;6.30;3.40;;;14.70;99.90;;;;;;5018916;28;20201;-50
2022/08/06 01:04:48;;;;;;;3.50;1.63;;;14.80;99.90;;;;;;5002555;28;20208;-51
2022/08/06 01:07:16;;;;;;;6.80;2.03;;;14.80;99.90;;;;;;5016132;28;20267;-50
2022/08/06 01:10:13;;;;;;;4.47;1.80;;;14.80;99.90;;;;;;5019594;28;20233;-50
2022/08/06 01:12:41;;;;;;;3.60;1.70;;;14.80;99.90;;;;;;5016068;28;20227;-50
2022/08/06 01:15:13;;;;;;;2.37;1.50;;;14.80;99.90;;;;;;5019916;28;20283;-50
2022/08/06 01:18:03;;;;;;;5.40;2.20;;;14.80;99.90;;;;;;5016563;28;20229;-50
2022/08/06 01:20:46;;;;;;;5.77;1.90;;;14.70;99.90;;;;;;5015611;28;20208;-50
2022/08/06 01:24:02;;;;;;;5.70;2.00;;;14.60;99.90;;;;;;5019879;28;20213;-50
2022/08/06 01:26:39;;;;;;;3.80;1.83;;;14.50;99.90;;;;;;5017668;28;20200;-51
2022/08/06 01:29:29;;;;;;;3.33;1.80;;;14.50;99.90;;;;;;5018878;28;20209;-49
2022/08/06 01:32:30;;;;;;;6.37;2.23;;;14.50;99.90;;;;;;5022723;28;20222;-50
2022/08/06 01:35:10;;;;;;;5.90;2.30;;;14.50;99.90;;;;;;5022295;28;20312;-49
2022/08/06 01:38:10;;;;;;;3.80;1.97;;;14.50;99.90;;;;;;5023222;28;20315;-51
2022/08/06 01:40:39;;;;;;;7.33;2.40;;;14.40;99.90;;;;;;5022392;28;20671;-51
2022/08/06 01:43:21;;;;;;;3.60;1.90;;;14.40;99.90;;;;;;5022702;28;20865;-51
2022/08/06 01:46:14;;;;;;;5.10;2.00;;;14.30;99.90;;;;;;5022313;28;20292;-51
2022/08/06 01:48:43;;;;;;;3.80;2.10;;;14.20;99.90;;;;;;5020847;28;20302;-50
2022/08/06 01:51:13;;;;;;;3.47;1.93;;;14.30;99.90;;;;;;5022399;28;20259;-50
2022/08/06 01:54:02;;;;;;;3.37;2.23;;;14.20;99.90;;;;;;5008418;28;20286;-51
2022/08/06 01:56:40;;;;;;;5.00;2.93;;;14.20;99.90;;;;;;5022707;28;20216;-50
2022/08/06 01:59:37;;;;;;;6.07;1.97;;;14.40;99.90;;;;;;5022330;28;20224;-50
2022/08/06 02:02:10;;;;;;;4.43;2.00;;;14.40;99.90;;;;;;5022103;28;20214;-51
2022/08/06 02:04:47;;;;;;;3.73;1.97;;;14.30;99.90;;;;;;5023369;28;20197;-50
2022/08/06 02:07:23;;;;;;;5.30;2.30;;;14.40;99.90;;;;;;5022576;28;20204;-49
2022/08/06 02:10:13;;;;;;;2.77;2.10;;;14.30;99.90;;;;;;5022822;28;20220;-50
2022/08/06 02:12:45;;;;;;;6.27;2.10;;;14.30;99.90;;;;;;5021941;28;20216;-53
2022/08/06 02:15:17;;;;;;;5.33;2.13;;;14.30;99.90;;;;;;5023024;28;20219;-50
2022/08/06 02:17:52;;;;;;;5.30;2.30;;;14.30;99.90;;;;;;5020371;28;20218;-50
2022/08/06 02:20:35;;;;;;;3.30;2.13;;;14.20;99.90;;;;;;5050084;28;20665;-49
2022/08/06 02:23:07;;;;;;;4.20;2.23;;;13.90;99.90;;;;;;5021701;28;20292;-48
2022/08/06 02:25:39;;;;;;;5.43;2.20;;;13.70;99.90;;;;;;5022104;28;20212;-52
2022/08/06 02:28:09;;;;;;;4.63;2.30;;;13.60;99.90;;;;;;5022185;28;20682;-50
2022/08/06 02:30:54;;;;;;;4.10;2.33;;;13.50;99.90;;;;;;5006791;28;20211;-50
2022/08/06 02:33:21;;;;;;;4.47;2.03;;;13.60;99.90;;;;;;5020440;28;20212;-49
2022/08/06 02:36:23;;;;;;;3.53;1.87;;;13.70;99.90;;;;;;5021509;28;20303;-50
2022/08/06 02:39:01;;;;;;;4.83;2.53;;;13.90;99.90;;;;;;5020115;28;20219;-55
2022/08/06 02:41:43;;;;;;;5.73;2.80;;;13.90;99.90;;;;;;5019173;28;20604;-50
2022/08/06 02:44:31;;;;;;;4.97;1.93;;;14.00;99.90;;;;;;5020214;28;20690;-49
2022/08/06 02:47:23;;;;;;;3.90;2.27;;;14.00;99.90;;;;;;5020317;28;20546;-50
2022/08/06 02:50:36;;;;;;;4.40;2.23;;;14.00;99.90;;;;;;5021129;28;20254;-50
2022/08/06 02:53:26;;;;;;;3.93;2.20;;;14.00;99.90;;;;;;5020776;28;20267;-50
2022/08/06 02:56:13;;;;;;;6.83;2.93;;;14.10;99.90;;;;;;5020865;28;20219;-50
2022/08/06 02:58:45;;;;;;;3.50;2.37;;;14.10;99.90;;;;;;5018588;28;20251;-50
2022/08/06 03:01:41;;;;;;;4.43;1.77;;;14.10;99.90;;;;;;5020319;28;20763;-50
2022/08/06 03:04:11;;;;;;;4.37;1.83;;;14.20;99.90;;;;;;5021176;28;20212;-50
2022/08/06 03:06:42;;;;;;;1.50;1.40;;;14.20;99.90;;;;;;5019851;28;20208;-50
2022/08/06 03:09:15;;;;;;;4.40;1.67;;;14.30;99.90;;;;;;5020328;28;20219;-50
2022/08/06 03:11:45;;;;;;;3.83;1.50;;;14.40;99.90;;;;;;5036582;28;20253;-50
2022/08/06 03:14:16;;;;;;;4.80;1.70;;;14.40;99.90;;;;;;5015902;28;20692;-51
2022/08/06 03:17:06;;;;;;;4.67;2.07;;;14.40;99.90;;;;;;5020298;28;20601;-50
2022/08/06 03:19:35;;;;;;;3.10;1.77;;;14.50;99.90;;;;;;5018478;28;20225;-51
2022/08/06 03:22:24;;;;;;;3.33;2.10;;;14.40;99.90;;;;;;5019200;28;20783;-51
2022/08/06 03:25:04;;;;;;;6.43;2.00;;;14.50;99.90;;;;;;5020608;28;20623;-49
2022/08/06 03:27:36;;;;;;;3.27;1.80;;;14.50;99.90;;;;;;5020153;28;20203;-50
2022/08/06 03:30:11;;;;;;;5.50;1.67;;;14.40;99.90;;;;;;5021204;28;20265;-51
2022/08/06 03:32:41;;;;;;;3.60;2.00;;;14.60;99.90;;;;;;5019530;28;20209;-51
2022/08/06 03:35:19;;;;;;;4.93;1.70;;;14.50;99.90;;;;;;5020897;28;20241;-50
2022/08/06 03:38:13;;;;;;;3.30;1.87;;;14.60;99.90;;;;;;5020579;28;20691;-49
2022/08/06 03:40:45;;;;;;;2.20;1.53;;;14.40;99.90;;;;;;5020785;28;20675;-50
2022/08/06 03:43:14;;;;;;;4.80;1.90;;;14.20;99.90;;;;;;5020349;28;20301;-50
2022/08/06 03:46:02;;;;;;;2.37;2.00;;;13.90;99.90;;;;;;5020590;28;20215;-49
2022/08/06 03:48:38;;;;;;;4.57;2.33;;;13.60;99.90;;;;;;5019983;28;20258;-50
2022/08/06 03:51:26;;;;;;;7.97;2.23;;;13.20;99.90;;;;;;5020015;28;20220;-50
2022/08/06 03:54:17;;;;;;;6.40;3.57;;;13.20;99.90;;;;;;5019918;28;20586;-49
2022/08/06 03:57:01;;;;;;;6.27;2.20;;;13.40;99.90;;;;;;5020734;28;20239;-50
2022/08/06 03:59:38;;;;;;;5.70;2.87;;;13.60;99.90;;;;;;5020399;28;20231;-49
2022/08/06 04:02:26;;;;;;;4.90;1.90;;;13.80;99.90;;;;;;5019862;28;20732;-51
2022/08/06 04:05:17;;;;;;;1.80;1.60;;;13.90;99.90;;;;;;5020235;28;20584;-50
2022/08/06 04:07:58;;;;;;;5.40;1.90;;;13.90;99.90;;;;;;5020243;28;20328;-51
2022/08/06 04:10:40;;;;;;;5.33;2.00;;;13.70;99.90;;;;;;5018837;28;20203;-49
2022/08/06 04:13:22;;;;;;;3.50;1.93;;;13.70;99.90;;;;;;5019164;28;20261;-50
2022/08/06 04:16:12;;;;;;;4.13;1.80;;;13.80;99.90;;;;;;5018712;28;20214;-49
2022/08/06 04:18:42;;;;;;;2.20;1.97;;;13.90;99.90;;;;;;5026883;28;20266;-48
2022/08/06 04:21:20;;;;;;;3.87;2.17;;;13.90;99.90;;;;;;5019072;28;20332;-50
2022/08/06 04:24:08;;;;;;;4.43;2.20;;;13.70;99.90;;;;;;5019663;28;20303;-49
2022/08/06 04:26:37;;;;;;;5.53;2.13;;;13.80;99.90;;;;;;5019713;28;20205;-50
2022/08/06 04:29:10;;;;;;;2.67;2.17;;;13.70;99.90;;;;;;5018605;28;20652;-50
2022/08/06 04:31:47;;;;;;;4.73;2.00;;;13.70;99.90;;;;;;5017746;28;20201;-50
2022/08/06 04:34:40;;;;;;;2.80;2.07;;;13.70;99.90;;;;;;5018717;28;20740;-50
2022/08/06 04:37:28;;;;;;;3.60;2.47;;;13.60;99.90;;;;;;5019978;28;20567;-50
2022/08/06 04:40:08;;;;;;;5.13;2.60;;;13.70;99.90;;;;;;5019572;28;20315;-50
2022/08/06 04:42:54;;;;;;;5.37;2.20;;;13.70;99.90;;;;;;5019666;28;20637;-51
2022/08/06 04:45:22;;;;;;;7.00;2.27;;;13.60;99.90;;;;;;5019066;28;20561;-50
2022/08/06 04:48:11;;;;;;;4.63;2.40;;;13.40;99.90;;;;;;5004078;28;20580;-50
2022/08/06 04:50:47;;;;;;;5.43;2.50;;;13.30;99.90;;;;;;5018130;28;20204;-50
2022/08/06 04:53:20;;;;;;;5.83;3.13;;;13.20;99.90;;;;;;5018183;28;20695;-51
2022/08/06 04:56:08;;;;;;;6.70;2.47;;;13.30;99.90;;;;;;5018842;28;20216;-53
2022/08/06 04:58:45;;;;;;;4.07;2.40;;;13.60;99.90;;;;;;5019348;28;20290;-50
2022/08/06 05:01:15;;;;;;;4.33;2.03;;;13.70;99.90;;;;;;5016075;28;20302;-50
2022/08/06 05:03:45;;;;;;;6.23;2.40;;;13.70;99.90;;;;;;5021350;28;20214;-51
2022/08/06 05:07:00;;;;;;;3.10;2.23;;;13.80;99.90;;;;;;5022300;28;20398;-52
2022/08/06 05:09:30;;;;;;;5.83;2.17;;;13.80;99.90;;;;;;5023052;28;20228;-49
2022/08/06 05:12:26;;;;;;;3.13;2.17;;;13.60;99.90;;;;;;5022318;28;20293;-50
2022/08/06 05:15:16;;;;;;;3.43;2.27;;;13.60;99.90;;;;;;5023589;28;20220;-51
2022/08/06 05:17:56;;;;;;;5.07;2.20;;;13.50;99.90;;;;;;5022688;28;20242;-50
2022/08/06 05:20:32;;;;;;;5.20;2.40;;;13.60;99.90;;;;;;5023677;28;20216;-51
2022/08/06 05:23:35;;;;;;;4.63;2.20;;;13.60;99.90;;;;;;5023708;28;20688;-50
2022/08/06 05:26:03;;;;;;;9.53;2.60;;;13.70;99.90;;;;;;5021799;28;20219;-50
2022/08/06 05:28:32;;;;;;;3.33;2.60;;;13.80;99.90;;;;;;5019395;28;20217;-50
2022/08/06 05:31:01;;;;;;;8.53;2.40;;;13.80;99.90;;;;;;5022406;28;20249;-50
2022/08/06 05:33:36;;;;;;;6.87;2.63;;;13.90;99.90;;;;;;5022959;28;20251;-49
2022/08/06 05:36:09;;;;;;;5.23;2.73;;;13.80;99.90;;;;;;5023295;28;20298;-50
2022/08/06 05:38:46;;;;;;;4.47;2.27;;;13.80;99.90;;;;;;5021485;28;20587;-51
2022/08/06 05:41:28;;;;;;;4.70;2.17;;;13.80;99.90;;;;;;5022643;28;20218;-50
2022/08/06 05:44:11;;;;;;;7.87;2.77;;;14.00;99.90;;;;;;5023197;28;20660;-51
2022/08/06 05:47:13;;;;;;;4.30;2.77;;;14.10;99.90;;;;;;5022085;28;20224;-51
2022/08/06 05:49:44;;;;;;;6.33;2.50;;;14.30;99.90;;;;;;5019764;28;20703;-50
2022/08/06 05:52:29;;;;;;;5.67;2.90;;;14.20;99.90;;;;;;5022128;28;20252;-52
2022/08/06 05:55:14;;;;;;;6.00;2.63;;;14.20;99.90;;;;;;5021163;28;20599;-50
2022/08/06 05:57:49;;;;;;;4.83;3.20;;;14.30;99.90;;;;;;5037940;28;20216;-50
2022/08/06 06:00:25;;;;;;;6.17;3.30;;;14.20;99.90;;;;;;5014363;28;20228;-51
2022/08/06 06:03:12;;;;;;;5.20;2.83;;;14.30;99.90;;;;;;5020513;28;20209;-51
2022/08/06 06:05:56;;;;;;;4.90;2.87;;;14.40;99.90;;;;;;5021440;28;20213;-49
2022/08/06 06:08:42;;;;;;;6.43;4.20;;;14.60;99.90;;;;;;5022911;28;20215;-51
2022/08/06 06:11:29;;;;;;;5.10;2.77;;;14.70;99.90;;;;;;5021589;28;20212;-50
2022/08/06 06:14:26;;;;;;;10.27;3.13;;;14.80;99.90;;;;;;5027552;28;20216;-51
2022/08/06 06:17:25;;;;;;;5.00;2.77;;;15.00;99.90;;;;;;5021456;28;20267;-50
2022/08/06 06:20:23;;;;;;;6.77;3.40;;;15.10;99.90;;;;;;5022586;28;20242;-50
2022/08/06 06:23:35;;;;;;;4.83;2.80;;;15.20;99.90;;;;;;5022448;28;20217;-50
2022/08/06 06:26:05;;;;;;;6.93;2.63;;;15.40;99.90;;;;;;5022308;28;20234;-50
2022/08/06 06:28:35;;;;;;;5.37;2.50;;;15.50;99.90;;;;;;5021866;28;20217;-51
2022/08/06 06:31:35;;;;;;;7.10;2.00;;;15.80;99.90;;;;;;5021734;28;20217;-50
2022/08/06 06:34:37;;;;;;;3.60;1.53;;;16.10;99.90;;;;;;5021897;28;20309;-50
2022/08/06 06:37:18;;;;;;;4.03;1.27;;;16.30;99.90;;;;;;5022303;28;20205;-51
2022/08/06 06:40:11;;;;;;;4.60;1.00;;;16.40;99.90;;;;;;5020019;28;20215;-53
2022/08/06 06:42:59;;;;;;;2.30;1.17;;;16.60;99.90;;;;;;5022901;28;20197;-52
2022/08/06 06:45:35;;;;;;;1.97;1.13;;;16.80;99.90;;;;;;5022214;28;20223;-51
2022/08/06 06:48:35;;;;;;;4.20;1.10;;;17.20;99.90;;;;;;5021449;28;20203;-50
2022/08/06 06:51:12;;;;;;;2.93;1.37;;;17.30;99.90;;;;;;5021226;28;20251;-52
2022/08/06 06:54:00;;;;;;;3.90;1.30;;;17.30;99.90;;;;;;5006822;28;20600;-50
2022/08/06 06:56:43;;;;;;;1.67;0.93;;;17.40;99.90;;;;;;5021175;28;20288;-52
2022/08/06 06:59:29;;;;;;;3.23;1.57;;;17.70;99.90;;;;;;5018079;28;20307;-51
2022/08/06 07:02:21;;;;;;;6.13;1.43;;;17.90;99.90;;;;;;5021191;28;20221;-50
2022/08/06 07:04:54;;;;;;;2.87;1.10;;;18.10;99.90;;;;;;5022738;28;20228;-52
2022/08/06 07:07:26;;;;;;;3.63;0.90;;;18.50;99.90;;;;;;5021977;28;20209;-51
2022/08/06 07:09:55;;;;;;;2.37;0.80;;;18.50;99.90;;;;;;5020539;28;20208;-51
2022/08/06 07:12:30;;;;;;;3.00;0.90;;;18.60;99.90;;;;;;5021026;28;20209;-51
2022/08/06 07:15:06;;;;;;;5.90;1.00;;;18.50;99.90;;;;;;5020960;28;20236;-52
2022/08/06 07:17:45;;;;;;;1.27;0.40;;;18.50;99.90;;;;;;5020512;28;20690;-53
2022/08/06 07:20:20;;;;;;;2.00;0.70;;;18.40;99.90;;;;;;5020622;28;20688;-51
2022/08/06 07:22:54;;;;;;;4.63;0.70;;;18.50;99.90;;;;;;5020970;28;20228;-51
2022/08/06 07:25:46;;;;;;;4.27;0.50;;;18.60;99.90;;;;;;5019392;28;20206;-51
2022/08/06 07:28:25;;;;;;;3.57;0.80;;;18.80;99.90;;;;;;5019723;28;20201;-51
2022/08/06 07:30:56;;;;;;;3.97;0.70;;;19.20;99.90;;;;;;5021621;28;20307;-52
2022/08/06 07:33:34;;;;;;;1.60;0.50;;;19.10;99.90;;;;;;5019097;28;20211;-51
2022/08/06 07:36:24;;;;;;;2.03;0.57;;;19.30;99.90;;;;;;5020738;28;20217;-50
2022/08/06 07:38:59;;;;;;;2.87;0.50;;;19.10;99.90;;;;;;5020553;28;20688;-50
2022/08/06 07:41:28;;;;;;;3.17;0.53;;;19.10;99.90;;;;;;5019427;28;20223;-52
2022/08/06 07:44:20;;;;;;;4.23;0.83;;;19.40;99.90;;;;;;5020500;28;20300;-52
2022/08/06 07:46:51;;;;;;;2.87;0.73;;;19.30;99.90;;;;;;5018938;28;20205;-52
2022/08/06 07:49:22;;;;;;;2.57;0.50;;;19.60;99.90;;;;;;5016300;28;20201;-51
2022/08/06 07:52:14;;;;;;;1.00;0.47;;;19.50;99.90;;;;;;5020137;28;20318;-50
2022/08/06 07:54:55;;;;;;;0.60;0.30;;;19.50;99.90;;;;;;5020594;28;20237;-52
2022/08/06 07:57:23;;;;;;;2.27;0.53;;;19.70;99.90;;;;;;5021770;28;20209;-51
2022/08/06 07:59:53;;;;;;;1.53;0.50;;;19.30;99.90;;;;;;5035090;28;20742;-52
2022/08/06 08:02:22;;;;;;;2.83;0.57;;;19.50;99.90;;;;;;5019263;28;20200;-51
2022/08/06 08:07:44;;;;;;;3.67;0.93;;;19.40;99.90;;;;;;5019444;28;20200;-52
2022/08/06 08:10:23;;;;;;;2.00;0.60;;;18.90;99.90;;;;;;5019477;28;20219;-52
2022/08/06 08:12:56;;;;;;;2.50;0.83;;;19.40;99.90;;;;;;5020362;28;20633;-52
2022/08/06 08:15:31;;;;;;;2.00;0.70;;;19.60;99.90;;;;;;5020754;28;20328;-51
2022/08/06 08:18:00;;;;;;;1.03;0.80;;;19.90;99.90;;;;;;5017818;28;20205;-51
2022/08/06 08:20:30;;;;;;;1.33;0.60;;;20.10;99.90;;;;;;5018674;28;20229;-51
2022/08/06 08:23:04;;;;;;;4.47;0.80;;;19.70;99.90;;;;;;5019951;28;20204;-51
2022/08/06 08:25:33;;;;;;;1.20;0.70;;;20.00;99.90;;;;;;5020485;28;20251;-51
2022/08/06 08:28:10;;;;;;;1.30;0.50;;;20.10;99.90;;;;;;5020272;28;20291;-51
2022/08/06 08:30:45;;;;;;;3.27;0.90;;;20.00;99.90;;;;;;5019523;28;20254;-50
2022/08/06 08:33:17;;;;;;;3.80;0.70;;;20.20;99.90;;;;;;5019836;28;20320;-51
2022/08/06 08:35:48;;;;;;;0.90;0.40;;;20.50;99.90;;;;;;5018735;28;20327;-50
2022/08/06 08:38:31;;;;;;;2.03;1.03;;;20.50;99.90;;;;;;5019188;28;20232;-51
2022/08/06 08:41:10;;;;;;;2.83;0.60;;;20.80;99.90;;;;;;5026366;28;20326;-52
2022/08/06 08:43:48;;;;;;;1.97;0.77;;;21.50;99.90;;;;;;5019450;28;20741;-51
2022/08/06 08:46:34;;;;;;;3.03;0.70;;;21.50;99.90;;;;;;5019735;28;20208;-50
2022/08/06 08:49:28;;;;;;;4.33;0.60;;;21.60;99.90;;;;;;5019795;28;20306;-52
2022/08/06 08:51:57;;;;;;;3.07;0.60;;;21.50;99.90;;;;;;5015107;28;20240;-51
2022/08/06 08:54:27;;;;;;;3.93;0.50;;;21.90;99.90;;;;;;5015362;28;20263;-52
2022/08/06 08:56:55;;;;;;;1.90;0.40;;;22.10;99.90;;;;;;5019069;28;20201;-50
2022/08/06 08:59:42;;;;;;;1.90;0.30;;;22.20;99.90;;;;;;5019675;28;20239;-52
2022/08/06 09:02:26;;;;;;;1.73;0.30;;;21.50;99.90;;;;;;5019137;28;20620;-51
2022/08/06 09:04:54;;;;;;;1.63;0.40;;;22.00;99.90;;;;;;5019152;28;20232;-51
2022/08/06 09:07:27;;;;;;;3.73;0.60;;;21.80;99.90;;;;;;5019683;28;20208;-51
2022/08/06 09:10:07;;;;;;;0.83;0.47;;;22.30;99.90;;;;;;5019348;28;20208;-50
2022/08/06 09:12:42;;;;;;;0.50;0.40;;;22.00;99.90;;;;;;5019064;28;20213;-49
2022/08/06 09:15:14;;;;;;;2.03;0.90;;;21.70;99.90;;;;;;5020420;28;20240;-50
2022/08/06 09:17:44;;;;;;;1.90;0.57;;;21.70;99.90;;;;;;5019762;28;20209;-51
2022/08/06 09:20:34;;;;;;;2.13;0.50;;;22.00;99.90;;;;;;5017278;28;20812;-56
2022/08/06 09:23:01;;;;;;;2.30;0.63;;;22.60;99.90;;;;;;5018821;28;20209;-53
2022/08/06 09:25:44;;;;;;;2.20;0.60;;;24.20;99.90;;;;;;5018982;28;20201;-54
2022/08/06 09:28:37;;;;;;;2.03;0.33;;;25.20;99.90;;;;;;5018923;28;20211;-53
2022/08/06 09:31:20;;;;;;;0.40;0.23;;;24.20;99.90;;;;;;5018808;28;20235;-53
2022/08/06 09:34:07;;;;;;;1.37;0.50;;;24.70;99.90;;;;;;5018206;28;20617;-52
2022/08/06 09:36:55;;;;;;;3.57;0.50;;;25.30;99.90;;;;;;5018600;28;20631;-52
2022/08/06 09:39:37;;;;;;;2.10;0.37;;;24.80;99.90;;;;;;5018846;28;20220;-52
2022/08/06 09:42:41;;;;;;;3.40;0.40;;;25.30;99.90;;;;;;5018913;28;20655;-49
2022/08/06 09:45:14;;;;;;;2.13;0.30;;;24.80;99.90;;;;;;5016931;28;20582;-47
2022/08/06 09:47:48;;;;;;;3.60;1.60;;;24.30;99.90;;;;;;5019465;28;20213;-49
2022/08/06 09:50:41;;;;;;;3.17;0.63;;;24.80;99.90;;;;;;5018523;28;20265;-48
2022/08/06 09:53:11;;;;;;;2.00;0.50;;;24.80;99.90;;;;;;5021860;28;20236;-48
2022/08/06 09:55:41;;;;;;;1.60;0.33;;;24.90;99.90;;;;;;5023333;28;20233;-49
2022/08/06 09:58:08;;;;;;;1.80;0.30;;;24.50;99.90;;;;;;5022101;28;20616;-50
2022/08/06 10:00:38;;;;;;;1.80;0.30;;;24.20;99.90;;;;;;5021436;28;20307;-49
2022/08/06 10:03:08;;;;;;;0.53;0.20;;;24.40;99.90;;;;;;5022784;28;20704;-49
2022/08/06 10:06:07;;;;;;;1.37;0.40;;;25.00;99.90;;;;;;5023221;28;20209;-50
2022/08/06 10:08:40;;;;;;;1.03;0.67;;;24.00;99.90;;;;;;5022951;28;20197;-49
2022/08/06 10:11:07;;;;;;;0.80;0.30;;;24.00;99.90;;;;;;5020931;28;20211;-49
2022/08/06 10:13:37;;;;;;;2.80;0.37;;;23.50;99.90;;;;;;5021611;28;20271;-49
2022/08/06 10:16:32;;;;;;;2.17;0.40;;;22.60;99.90;;;;;;5021252;28;20292;-47
2022/08/06 10:19:02;;;;;;;3.13;0.50;;;22.40;99.90;;;;;;5021102;28;20267;-51
2022/08/06 10:21:44;;;;;;;1.50;0.50;;;22.90;99.90;;;;;;5023377;28;20270;-48
2022/08/06 10:24:15;;;;;;;2.17;0.40;;;23.40;99.90;;;;;;5021636;28;20209;-49
2022/08/06 10:27:06;;;;;;;1.30;0.50;;;23.60;99.90;;;;;;5020421;28;20211;-49
2022/08/06 10:29:41;;;;;;;0.50;0.30;;;23.40;99.90;;;;;;5022907;28;20217;-49
2022/08/06 10:32:15;;;;;;;0.93;0.30;;;22.90;99.90;;;;;;5020889;28;20231;-48
2022/08/06 10:34:48;;;;;;;0.30;0.20;;;22.50;99.90;;;;;;5022347;28;20212;-52
2022/08/06 10:37:17;;;;;;;0.50;0.30;;;21.90;99.90;;;;;;5021666;28;20331;-51
2022/08/06 10:40:05;;;;;;;2.57;0.40;;;22.40;99.90;;;;;;5021299;28;20647;-49
2022/08/06 10:42:35;;;;;;;0.73;0.40;;;22.20;99.90;;;;;;5022065;28;20287;-49
2022/08/06 10:45:07;;;;;;;1.20;0.60;;;22.20;99.90;;;;;;5022441;28;20662;-49
2022/08/06 10:47:42;;;;;;;1.90;0.30;;;22.50;99.90;;;;;;5020927;28;20214;-49
2022/08/06 10:50:30;;;;;;;2.50;0.60;;;22.60;99.90;;;;;;5019731;28;20246;-48
2022/08/06 10:53:17;;;;;;;1.43;0.47;;;22.20;99.90;;;;;;5019695;28;20277;-50
2022/08/06 10:56:06;;;;;;;1.37;0.50;;;22.10;99.90;;;;;;5021164;28;20213;-47
2022/08/06 10:58:36;;;;;;;0.57;0.37;;;22.50;99.90;;;;;;5021000;28;20209;-49
2022/08/06 11:01:09;;;;;;;2.43;0.50;;;22.70;99.90;;;;;;5021144;28;20231;-49
2022/08/06 11:03:57;;;;;;;1.53;0.63;;;22.90;99.90;;;;;;5020100;28;20635;-48
2022/08/06 11:06:43;;;;;;;1.30;0.30;;;23.20;99.90;;;;;;5021276;28;20225;-50
2022/08/06 11:09:53;;;;;;;1.30;0.40;;;23.70;99.90;;;;;;5021311;28;20278;-49
2022/08/06 11:12:40;;;;;;;0.47;0.20;;;24.30;99.90;;;;;;5021882;28;20227;-48
2022/08/06 11:15:14;;;;;;;0.93;0.30;;;24.90;99.90;;;;;;5020598;28;20630;-48
2022/08/06 11:17:53;;;;;;;1.70;0.40;;;24.60;99.90;;;;;;5019909;28;20593;-50
2022/08/06 11:20:32;;;;;;;0.77;0.30;;;25.50;99.90;;;;;;5021347;28;20706;-49
2022/08/06 11:22:59;;;;;;;1.80;0.30;;;25.60;99.90;;;;;;5021255;28;20201;-49
2022/08/06 11:25:52;;;;;;;1.97;0.70;;;25.40;99.90;;;;;;5018970;28;20208;-48
2022/08/06 11:28:40;;;;;;;1.13;0.40;;;26.50;99.90;;;;;;5033404;28;20205;-52
2022/08/06 11:31:27;;;;;;;4.17;0.80;;;26.40;99.90;;;;;;5020153;28;20212;-49
2022/08/06 11:34:00;;;;;;;1.47;0.60;;;26.60;99.90;;;;;;5019845;28;20239;-50
2022/08/06 11:36:41;;;;;;;2.13;0.50;;;24.10;99.90;;;;;;5021546;28;20812;-51
2022/08/06 11:39:26;;;;;;;2.20;0.50;;;23.60;99.90;;;;;;5020807;28;20244;-50
2022/08/06 11:42:42;;;;;;;1.13;0.67;;;24.10;99.90;;;;;;5020819;28;20209;-50
2022/08/06 11:45:17;;;;;;;0.87;0.30;;;27.30;99.90;;;;;;5020261;28;20263;-50
2022/08/06 11:48:06;;;;;;;2.55;0.80;;;28.30;99.90;;;;;;5021977;28;20653;-50
2022/08/06 11:50:53;;;;;;;1.00;0.52;;;27.60;99.90;;;;;;5022021;28;20201;-48
2022/08/06 11:53:37;;;;;;;1.52;0.45;;;28.80;99.90;;;;;;5018821;28;20678;-49
2022/08/06 11:56:18;;;;;;;4.00;0.45;;;27.50;99.90;;;;;;5020959;28;20211;-49
2022/08/06 11:59:12;;;;;;;1.38;0.40;;;28.10;99.90;;;;;;5020526;28;20252;-51
2022/08/06 12:01:47;;;;;;;0.80;0.43;;;28.00;99.90;;;;;;5017550;28;20271;-51
2022/08/06 12:04:36;;;;;;;1.73;0.43;;;28.40;99.90;;;;;;5021144;28;20576;-51
2022/08/06 12:07:30;;;;;;;1.60;0.38;;;27.60;99.90;;;;;;5019145;28;20233;-50
2022/08/06 12:10:05;;;;;;;1.13;0.50;;;26.20;99.90;;;;;;5020377;28;20205;-50
2022/08/06 12:12:46;;;;;;;0.32;0.30;;;24.80;99.90;;;;;;5034463;28;20208;-50
2022/08/06 12:15:15;;;;;;;1.10;0.30;;;23.60;99.90;;;;;;5018916;28;20209;-48
2022/08/06 12:18:03;;;;;;;2.00;0.50;;;23.80;99.90;;;;;;5017652;28;20305;-49
2022/08/06 12:20:51;;;;;;;1.48;0.45;;;24.40;99.90;;;;;;5019746;28;20231;-49
2022/08/06 12:23:23;;;;;;;2.10;0.70;;;25.10;99.90;;;;;;5020569;28;20562;-50
2022/08/06 12:26:10;;;;;;;1.80;0.50;;;27.00;99.90;;;;;;5021158;28;20209;-49
2022/08/06 12:28:38;;;;;;;2.53;0.40;;;26.60;99.90;;;;;;5018381;28;20212;-49
2022/08/06 12:31:05;;;;;;;1.60;0.40;;;26.50;99.90;;;;;;5013007;28;20209;-50
2022/08/06 12:33:51;;;;;;;1.47;0.50;;;28.00;99.90;;;;;;5019192;28;20213;-50
2022/08/06 12:36:18;;;;;;;1.53;0.40;;;27.80;99.90;;;;;;5018305;28;20205;-51
2022/08/06 12:39:03;;;;;;;0.50;0.37;;;28.20;99.90;;;;;;5020226;28;20204;-47
2022/08/06 12:41:40;;;;;;;2.10;0.40;;;28.90;99.90;;;;;;5020848;28;20575;-49
2022/08/06 12:44:14;;;;;;;1.07;0.43;;;28.50;99.90;;;;;;5021456;28;20604;-49
2022/08/06 12:47:12;;;;;;;0.60;0.50;;;27.20;99.90;;;;;;5019191;28;20295;-48
2022/08/06 12:49:39;;;;;;;2.55;0.60;;;25.40;99.90;;;;;;5026371;28;20211;-51
2022/08/06 12:52:16;;;;;;;0.60;0.40;;;26.10;99.90;;;;;;5019533;28;20602;-50
2022/08/06 12:54:44;;;;;;;2.20;0.50;;;27.90;99.90;;;;;;5020627;28;20628;-50
2022/08/06 12:57:30;;;;;;;0.98;0.30;;;28.70;99.90;;;;;;5018723;28;20207;-49
2022/08/06 13:00:17;;;;;;;1.13;0.35;;;28.00;99.90;;;;;;5020302;28;20279;-52
2022/08/06 13:02:55;;;;;;;1.27;0.50;;;27.40;99.90;;;;;;5019073;28;20682;-51
2022/08/06 13:05:26;;;;;;;1.07;0.30;;;27.80;99.90;;;;;;5019336;28;20236;-49
2022/08/06 13:07:58;;;;;;;1.40;0.40;;;29.50;99.90;;;;;;5020180;28;20216;-49
2022/08/06 13:10:26;;;;;;;1.37;0.60;;;29.80;99.90;;;;;;5017884;28;20209;-50
2022/08/06 13:13:09;;;;;;;1.87;0.30;;;27.30;99.90;;;;;;5019401;28;20739;-52
2022/08/06 13:16:05;;;;;;;1.57;0.30;;;26.20;99.90;;;;;;5018378;28;20733;-49
2022/08/06 13:18:35;;;;;;;2.43;0.40;;;26.10;99.90;;;;;;5020500;28;20216;-48
2022/08/06 13:21:20;;;;;;;1.23;0.37;;;26.90;99.90;;;;;;5018943;28;20275;-50
2022/08/06 13:23:52;;;;;;;1.43;0.33;;;25.50;99.90;;;;;;5019871;28;20211;-50
2022/08/06 13:26:22;;;;;;;0.80;0.40;;;26.50;99.90;;;;;;5018373;28;20210;-49
2022/08/06 13:29:08;;;;;;;1.47;0.40;;;27.90;99.90;;;;;;5022339;28;20220;-50
2022/08/06 13:32:08;;;;;;;0.60;0.40;;;27.30;99.90;;;;;;5023546;28;20584;-47
2022/08/06 13:34:56;;;;;;;0.93;0.37;;;25.50;99.90;;;;;;5022378;28;20299;-49
2022/08/06 13:37:51;;;;;;;1.03;0.40;;;24.60;99.90;;;;;;5023069;28;20213;-49
2022/08/06 13:40:44;;;;;;;2.00;0.57;;;24.30;99.90;;;;;;5021570;28;20235;-50
2022/08/06 13:43:44;;;;;;;1.73;0.40;;;24.40;99.90;;;;;;5020610;28;20211;-50
2022/08/06 13:46:22;;;;;;;1.90;0.50;;;24.30;99.90;;;;;;5021859;28;20211;-51
2022/08/06 13:48:59;;;;;;;1.33;0.50;;;24.30;99.90;;;;;;5023891;28;20201;-50
2022/08/06 13:51:28;;;;;;;0.73;0.50;;;24.40;99.90;;;;;;5023214;28;20559;-50
2022/08/06 13:54:03;;;;;;;0.93;0.37;;;24.40;99.90;;;;;;5021663;28;20729;-48
2022/08/06 13:56:45;;;;;;;1.00;0.40;;;24.30;99.90;;;;;;5022363;28;20321;-48